createdAt,value
2019-04-04T00:01:51.174Z,101165.08
2019-04-04T00:04:18.251Z,101169.06
2019-04-04T00:06:45.328Z,101163.84
2019-04-04T00:09:12.411Z,101165.61
2019-04-04T00:11:39.464Z,101168.23
2019-04-04T00:14:06.520Z,101173.52
2019-04-04T00:16:33.588Z,101173.09
2019-04-04T00:19:00.651Z,101164.33
2019-04-04T00:21:27.712Z,101167.44
2019-04-04T00:23:54.783Z,101163.97
2019-04-04T00:26:21.896Z,101165.74
2019-04-04T00:28:49.003Z,101173.64
2019-04-04T00:31:18.860Z,101164.91
2019-04-04T00:33:45.055Z,101166.67
2019-04-04T00:36:12.144Z,101164.98
2019-04-04T00:38:39.207Z,101163.24
2019-04-04T00:41:06.262Z,101166.74
2019-04-04T00:43:33.333Z,101166.36
2019-04-04T00:46:01.089Z,101164.17
2019-04-04T00:48:28.269Z,101164.66
2019-04-04T00:50:55.332Z,101157.66
2019-04-04T00:53:22.390Z,101154.59
2019-04-04T00:55:49.469Z,101157.27
2019-04-04T00:58:16.554Z,101153.77
2019-04-04T01:00:43.620Z,101160.38
2019-04-04T01:03:10.687Z,101157.33
2019-04-04T01:05:37.758Z,101155.59
2019-04-04T01:08:04.949Z,101158.22
2019-04-04T01:10:33.799Z,101157.80
2019-04-04T01:13:02.066Z,101153.41
2019-04-04T01:15:31.214Z,101152.54
2019-04-04T01:17:58.217Z,101146.86
2019-04-04T01:20:25.292Z,101149.91
2019-04-04T01:22:54.082Z,101149.52
2019-04-04T01:25:21.369Z,101147.78
2019-04-04T01:27:48.455Z,101140.78
2019-04-04T01:30:15.873Z,101143.45
2019-04-04T01:32:42.962Z,101144.34
2019-04-04T01:35:10.019Z,101150.08
2019-04-04T01:37:37.101Z,101143.50
2019-04-04T01:40:04.900Z,101139.97
2019-04-04T01:42:31.975Z,101143.47
2019-04-04T01:44:59.056Z,101139.95
2019-04-04T01:47:26.121Z,101139.95
2019-04-04T01:49:53.207Z,101135.52
2019-04-04T01:52:20.289Z,101137.28
2019-04-04T01:54:47.606Z,101134.20
2019-04-04T01:57:14.712Z,101132.88
2019-04-04T01:59:41.950Z,101125.44
2019-04-04T02:02:10.775Z,101128.52
2019-04-04T02:04:37.838Z,101126.75
2019-04-04T02:07:04.914Z,101122.35
2019-04-04T02:09:34.181Z,101118.41
2019-04-04T02:12:00.967Z,101116.22
2019-04-04T02:14:28.051Z,101116.64
2019-04-04T02:16:55.114Z,101114.45
2019-04-04T02:19:22.915Z,101117.95
2019-04-04T02:21:51.196Z,101119.30
2019-04-04T02:24:18.379Z,101121.52
2019-04-04T02:26:45.449Z,101119.81
2019-04-04T02:29:12.527Z,101123.34
2019-04-04T02:31:43.713Z,101129.05
2019-04-04T02:34:10.785Z,101126.42
2019-04-04T02:36:37.860Z,101126.90
2019-04-04T02:39:11.617Z,101130.45
2019-04-04T02:41:38.687Z,101130.03
2019-04-04T02:44:05.951Z,101130.52
2019-04-04T02:46:33.311Z,101127.04
2019-04-04T02:49:00.388Z,101125.27
2019-04-04T02:51:27.460Z,101131.45
2019-04-04T02:53:54.550Z,101129.30
2019-04-04T02:56:22.525Z,101122.72
2019-04-04T02:58:50.198Z,101121.87
2019-04-04T03:01:17.385Z,101128.02
2019-04-04T03:03:44.448Z,101128.04
2019-04-04T03:06:11.758Z,101122.36
2019-04-04T03:08:38.827Z,101117.55
2019-04-04T03:11:05.898Z,101117.98
2019-04-04T03:13:33.021Z,101125.47
2019-04-04T03:16:00.103Z,101118.44
2019-04-04T03:18:27.174Z,101122.80
2019-04-04T03:20:54.280Z,101115.78
2019-04-04T03:23:21.364Z,101113.56
2019-04-04T03:25:48.436Z,101113.16
2019-04-04T03:28:15.532Z,101107.89
2019-04-04T03:30:42.611Z,101107.44
2019-04-04T03:33:09.701Z,101113.16
2019-04-04T03:35:36.756Z,101108.78
2019-04-04T03:38:03.819Z,101107.44
2019-04-04T03:40:30.884Z,101113.59
2019-04-04T03:42:57.993Z,101114.46
2019-04-04T03:45:27.347Z,101115.80
2019-04-04T03:47:54.061Z,101114.96
2019-04-04T03:50:21.135Z,101115.44
2019-04-04T03:52:48.218Z,101110.65
2019-04-04T03:55:15.330Z,101110.67
2019-04-04T03:57:42.429Z,101112.00
2019-04-04T04:00:11.995Z,101107.24
2019-04-04T04:02:39.072Z,101110.34
2019-04-04T04:05:23.201Z,101109.92
2019-04-04T04:07:50.311Z,101108.17
2019-04-04T04:10:19.207Z,101114.34
2019-04-04T04:12:46.267Z,101112.17
2019-04-04T04:15:13.356Z,101122.27
2019-04-04T04:17:45.144Z,101117.89
2019-04-04T04:20:09.411Z,101121.41
2019-04-04T04:22:36.476Z,101129.77
2019-04-04T04:25:04.008Z,101125.84
2019-04-04T04:27:31.132Z,101129.34
2019-04-04T04:30:00.186Z,101137.22
2019-04-04T04:32:27.207Z,101136.38
2019-04-04T04:34:54.310Z,101136.81
2019-04-04T04:37:21.389Z,101135.53
2019-04-04T04:39:48.459Z,101141.23
2019-04-04T04:42:15.532Z,101138.60
2019-04-04T04:44:44.412Z,101135.07
2019-04-04T04:47:11.471Z,101139.92
2019-04-04T04:49:38.539Z,101149.12
2019-04-04T04:52:05.625Z,101149.98
2019-04-04T04:54:32.746Z,101149.09
2019-04-04T04:57:03.518Z,101153.01
2019-04-04T04:59:30.795Z,101149.50
2019-04-04T05:01:57.870Z,101150.36
2019-04-04T05:04:27.984Z,101153.87
2019-04-04T05:06:53.954Z,101155.18
2019-04-04T05:09:21.033Z,101154.75
2019-04-04T05:11:50.315Z,101156.91
2019-04-04T05:14:17.999Z,101157.32
2019-04-04T05:16:45.075Z,101161.70
2019-04-04T05:19:12.185Z,101160.77
2019-04-04T05:21:39.314Z,101166.02
2019-04-04T05:24:06.414Z,101167.28
2019-04-04T05:26:34.494Z,101165.95
2019-04-04T05:29:02.458Z,101156.27
2019-04-04T05:31:29.701Z,101158.86
2019-04-04T05:33:58.990Z,101161.87
2019-04-04T05:36:25.934Z,101160.95
2019-04-04T05:38:53.002Z,101161.34
2019-04-04T05:41:21.906Z,101165.70
2019-04-04T05:43:48.986Z,101174.84
2019-04-04T05:46:19.124Z,101168.22
2019-04-04T05:48:46.145Z,101161.62
2019-04-04T05:51:15.224Z,101169.01
2019-04-04T05:53:42.246Z,101167.22
2019-04-04T05:56:09.290Z,101166.72
2019-04-04T05:58:36.376Z,101159.66
2019-04-04T06:01:05.504Z,101157.89
2019-04-04T06:03:33.698Z,101161.31
2019-04-04T06:06:01.345Z,101161.24
2019-04-04T06:08:29.096Z,101159.84
2019-04-04T06:10:56.310Z,101159.84
2019-04-04T06:13:25.015Z,101165.13
2019-04-04T06:15:54.523Z,101165.11
2019-04-04T06:18:21.602Z,101167.64
2019-04-04T06:20:49.074Z,101162.34
2019-04-04T06:23:16.264Z,101162.23
2019-04-04T06:25:43.360Z,101160.44
2019-04-04T06:28:12.033Z,101155.09
2019-04-04T06:30:43.561Z,101156.34
2019-04-04T06:33:09.543Z,101156.72
2019-04-04T06:35:39.539Z,101159.33
2019-04-04T06:38:05.603Z,101161.09
2019-04-04T06:40:32.669Z,101164.56
2019-04-04T06:42:59.771Z,101162.22
2019-04-04T06:45:29.595Z,101159.88
2019-04-04T06:47:57.560Z,101157.13
2019-04-04T06:50:24.799Z,101162.33
2019-04-04T06:52:51.886Z,101157.00
2019-04-04T06:55:18.956Z,101161.25
2019-04-04T06:57:49.792Z,101157.16
2019-04-04T07:00:16.659Z,101161.04
2019-04-04T07:02:43.942Z,101163.45
2019-04-04T07:05:11.053Z,101162.41
2019-04-04T07:07:38.116Z,101171.91
2019-04-04T07:10:05.546Z,101170.04
2019-04-04T07:12:32.730Z,101165.62
2019-04-04T07:14:59.881Z,101170.45
2019-04-04T07:17:26.957Z,101163.28
2019-04-04T07:19:54.036Z,101163.20
2019-04-04T07:22:24.599Z,101168.42
2019-04-04T07:24:50.109Z,101166.19
2019-04-04T07:27:19.002Z,101163.03
2019-04-04T07:29:46.075Z,101158.52
2019-04-04T07:32:13.176Z,101159.63
2019-04-04T07:34:41.355Z,101165.61
2019-04-04T07:37:08.433Z,101164.09
2019-04-04T07:39:35.580Z,101168.27
2019-04-04T07:42:02.689Z,101166.79
2019-04-04T07:44:29.774Z,101166.61
2019-04-04T07:46:56.871Z,101162.95
2019-04-04T07:49:25.268Z,101160.08
2019-04-04T07:51:52.351Z,101166.00
2019-04-04T07:54:19.458Z,101163.61
2019-04-04T07:56:48.863Z,101161.30
2019-04-04T07:59:16.131Z,101164.07
2019-04-04T08:01:51.000Z,101158.87
2019-04-04T08:04:13.351Z,101159.41
2019-04-04T08:06:40.457Z,101155.88
2019-04-04T08:09:07.650Z,101155.92
2019-04-04T08:11:34.832Z,101151.97
2019-04-04T08:14:02.105Z,101155.48
2019-04-04T08:16:29.181Z,101145.81
2019-04-04T08:18:56.279Z,101148.34
2019-04-04T08:21:23.355Z,101145.30
2019-04-04T08:23:50.441Z,101136.14
2019-04-04T08:26:17.746Z,101137.95
2019-04-04T08:28:44.803Z,101142.06
2019-04-04T08:31:11.889Z,101135.17
2019-04-04T08:33:38.991Z,101130.22
2019-04-04T08:36:06.650Z,101124.08
2019-04-04T08:38:33.930Z,101118.02
2019-04-04T08:41:03.015Z,101126.13
2019-04-04T08:43:30.141Z,101127.95
2019-04-04T08:45:59.019Z,101135.25
2019-04-04T08:48:26.098Z,101132.39
2019-04-04T08:50:53.169Z,101122.50
2019-04-04T08:53:20.232Z,101127.23
2019-04-04T08:55:47.340Z,101121.28
2019-04-04T08:58:14.431Z,101122.87
2019-04-04T09:00:41.911Z,101119.90
2019-04-04T09:03:08.987Z,101121.16
2019-04-04T09:05:36.058Z,101125.06
2019-04-04T09:08:03.139Z,101122.99
2019-04-04T09:10:30.232Z,101118.47
2019-04-04T09:12:57.391Z,101113.95
2019-04-04T09:15:24.465Z,101118.74
2019-04-04T09:17:51.546Z,101110.49
2019-04-04T09:20:19.786Z,101117.53
2019-04-04T09:22:46.812Z,101116.45
2019-04-04T09:25:14.033Z,101112.95
2019-04-04T09:27:41.111Z,101109.47
2019-04-04T09:30:08.904Z,101107.00
2019-04-04T09:32:35.985Z,101109.42
2019-04-04T09:35:03.658Z,101111.62
2019-04-04T09:37:30.734Z,101121.22
2019-04-04T09:39:57.812Z,101117.30
2019-04-04T09:42:24.891Z,101115.20
2019-04-04T09:44:51.968Z,101111.73
2019-04-04T09:47:19.182Z,101106.09
2019-04-04T09:49:47.367Z,101104.78
2019-04-04T09:52:14.460Z,101108.69
2019-04-04T09:54:41.566Z,101104.28
2019-04-04T09:57:08.639Z,101104.37
2019-04-04T09:59:35.743Z,101103.69
2019-04-04T10:02:03.155Z,101103.38
2019-04-04T10:04:30.290Z,101099.17
2019-04-04T10:06:57.455Z,101103.52
2019-04-04T10:09:24.532Z,101096.04
2019-04-04T10:11:51.621Z,101094.97
2019-04-04T10:14:18.718Z,101095.78
2019-04-04T10:16:45.801Z,101095.71
2019-04-04T10:19:12.958Z,101103.48
2019-04-04T10:21:40.048Z,101098.94
2019-04-04T10:24:07.154Z,101100.72
2019-04-04T10:26:34.231Z,101098.08
2019-04-04T10:29:01.320Z,101096.91
2019-04-04T10:31:28.392Z,101094.87
2019-04-04T10:33:55.462Z,101101.33
2019-04-04T10:36:22.547Z,101101.17
2019-04-04T10:38:49.618Z,101110.46
2019-04-04T10:41:16.698Z,101104.33
2019-04-04T10:43:43.773Z,101105.94
2019-04-04T10:46:10.876Z,101104.65
2019-04-04T10:48:37.947Z,101108.56
2019-04-04T10:51:05.130Z,101106.45
2019-04-04T10:53:32.211Z,101116.59
2019-04-04T10:55:59.353Z,101109.53
2019-04-04T10:58:26.459Z,101109.19
2019-04-04T11:00:53.539Z,101108.09
2019-04-04T11:03:21.910Z,101098.95
2019-04-04T11:05:48.998Z,101103.11
2019-04-04T11:08:16.066Z,101102.48
2019-04-04T11:10:43.149Z,101094.94
2019-04-04T11:13:10.244Z,101095.22
2019-04-04T11:15:37.339Z,101092.41
2019-04-04T11:18:04.414Z,101091.65
2019-04-04T11:20:31.554Z,101091.52
2019-04-04T11:22:58.619Z,101095.38
2019-04-04T11:25:25.688Z,101097.58
2019-04-04T11:27:54.551Z,101098.75
2019-04-04T11:30:22.734Z,101092.09
2019-04-04T11:32:49.805Z,101096.44
2019-04-04T11:35:16.869Z,101095.19
2019-04-04T11:37:43.987Z,101090.42
2019-04-04T11:40:11.634Z,101098.14
2019-04-04T11:42:38.732Z,101094.16
2019-04-04T11:45:06.433Z,101095.09
2019-04-04T11:47:33.496Z,101093.92
2019-04-04T11:50:00.564Z,101095.95
2019-04-04T11:52:27.646Z,101090.11
2019-04-04T11:54:58.760Z,101090.89
2019-04-04T11:57:25.847Z,101091.58
2019-04-04T11:59:52.920Z,101093.88
2019-04-04T12:02:19.997Z,101084.94
2019-04-04T12:04:47.058Z,101089.80
2019-04-04T12:07:14.140Z,101093.81
2019-04-04T12:09:41.226Z,101093.95
2019-04-04T12:12:08.303Z,101094.30
2019-04-04T12:14:35.379Z,101091.39
2019-04-04T12:17:02.443Z,101093.45
2019-04-04T12:19:29.520Z,101099.17
2019-04-04T12:21:56.600Z,101097.92
2019-04-04T12:24:23.676Z,101103.56
2019-04-04T12:26:50.751Z,101092.52
2019-04-04T12:29:17.840Z,101103.84
2019-04-04T12:31:46.036Z,101098.03
2019-04-04T12:34:13.108Z,101098.41
2019-04-04T12:36:44.381Z,101095.73
2019-04-04T12:39:11.424Z,101099.05
2019-04-04T12:41:38.507Z,101099.98
2019-04-04T12:44:05.572Z,101108.20
2019-04-04T12:46:32.643Z,101106.48
2019-04-04T12:48:59.765Z,101102.52
2019-04-04T12:51:26.850Z,101104.78
2019-04-04T12:53:55.138Z,101106.91
2019-04-04T12:56:22.219Z,101099.46
2019-04-04T12:58:49.308Z,101105.85
2019-04-04T13:01:16.401Z,101110.90
2019-04-04T13:03:43.482Z,101112.19
2019-04-04T13:06:10.591Z,101110.31
2019-04-04T13:08:37.696Z,101114.38
2019-04-04T13:11:04.773Z,101104.78
2019-04-04T13:13:31.878Z,101113.78
2019-04-04T13:15:58.947Z,101111.77
2019-04-04T13:18:26.031Z,101093.14
2019-04-04T13:20:53.214Z,101096.55
2019-04-04T13:23:20.290Z,101100.61
2019-04-04T13:25:47.375Z,101099.87
2019-04-04T13:28:14.453Z,101097.25
2019-04-04T13:30:41.624Z,101095.97
2019-04-04T13:33:08.687Z,101100.27
2019-04-04T13:35:37.935Z,101100.50
2019-04-04T13:38:04.947Z,101097.88
2019-04-04T13:40:44.468Z,101094.90
2019-04-04T13:43:01.089Z,101099.56
2019-04-04T13:45:28.158Z,101107.10
2019-04-04T13:47:56.345Z,101099.91
2019-04-04T13:50:23.665Z,101101.19
2019-04-04T13:52:50.739Z,101107.39
2019-04-04T13:55:18.057Z,101107.52
2019-04-04T13:57:45.383Z,101099.16
2019-04-04T14:00:14.384Z,101095.94
2019-04-04T14:02:41.505Z,101100.20
2019-04-04T14:05:11.406Z,101094.02
2019-04-04T14:07:37.978Z,101098.88
2019-04-04T14:10:05.076Z,101114.22
2019-04-04T14:12:32.199Z,101110.48
2019-04-04T14:14:59.474Z,101101.14
2019-04-04T14:17:26.671Z,101105.02
2019-04-04T14:19:53.758Z,101104.83
2019-04-04T14:22:21.007Z,101103.40
2019-04-04T14:24:48.169Z,101104.06
2019-04-04T14:27:15.236Z,101095.92
2019-04-04T14:29:42.303Z,101098.66
2019-04-04T14:32:09.492Z,101098.02
2019-04-04T14:34:36.625Z,101096.48
2019-04-04T14:37:04.014Z,101095.45
2019-04-04T14:39:31.441Z,101099.41
2019-04-04T14:41:58.665Z,101092.67
2019-04-04T14:44:25.750Z,101092.71
2019-04-04T14:46:52.819Z,101100.94
2019-04-04T14:49:19.891Z,101099.81
2019-04-04T14:51:47.243Z,101098.81
2019-04-04T14:54:14.425Z,101103.48
2019-04-04T14:56:41.484Z,101106.33
2019-04-04T14:59:08.772Z,101113.63
2019-04-04T15:01:36.006Z,101107.97
2019-04-04T15:04:03.187Z,101104.82
2019-04-04T15:06:30.304Z,101103.66
2019-04-04T15:08:57.474Z,101103.20
2019-04-04T15:11:24.814Z,101102.80
2019-04-04T15:13:51.947Z,101099.41
2019-04-04T15:16:19.025Z,101103.38
2019-04-04T15:18:46.091Z,101100.52
2019-04-04T15:21:13.672Z,101098.03
2019-04-04T15:23:40.731Z,101096.84
2019-04-04T15:26:09.735Z,101103.08
2019-04-04T15:28:36.892Z,101104.13
2019-04-04T15:31:04.004Z,101104.13
2019-04-04T15:33:31.096Z,101101.58
2019-04-04T15:35:58.326Z,101104.44
2019-04-04T15:38:25.415Z,101102.16
2019-04-04T15:40:52.488Z,101098.25
2019-04-04T15:43:19.562Z,101102.06
2019-04-04T15:45:46.647Z,101099.05
2019-04-04T15:48:13.833Z,101098.25
2019-04-04T15:50:40.920Z,101103.22
2019-04-04T15:53:08.011Z,101101.47
2019-04-04T15:55:35.115Z,101102.80
2019-04-04T15:58:02.202Z,101100.73
2019-04-04T16:00:29.502Z,101115.67
2019-04-04T16:02:56.579Z,101107.09
2019-04-04T16:05:23.651Z,101112.83
2019-04-04T16:07:50.733Z,101112.40
2019-04-04T16:10:19.355Z,101113.79
2019-04-04T16:12:46.438Z,101111.14
2019-04-04T16:15:13.635Z,101108.11
2019-04-04T16:17:40.716Z,101111.23
2019-04-04T16:20:08.332Z,101112.06
2019-04-04T16:22:35.410Z,101112.86
2019-04-04T16:25:04.495Z,101117.37
2019-04-04T16:27:31.759Z,101127.80
2019-04-04T16:29:58.895Z,101125.39
2019-04-04T16:32:26.034Z,101127.22
2019-04-04T16:34:53.148Z,101134.31
2019-04-04T16:37:20.216Z,101131.81
2019-04-04T16:39:47.395Z,101134.16
2019-04-04T16:42:14.479Z,101130.35
2019-04-04T16:44:43.351Z,101135.61
2019-04-04T16:47:11.539Z,101135.12
2019-04-04T16:49:38.741Z,101136.06
2019-04-04T16:52:07.196Z,101140.65
2019-04-04T16:54:34.417Z,101140.30
2019-04-04T16:57:01.488Z,101142.69
2019-04-04T16:59:28.567Z,101139.02
2019-04-04T17:01:55.659Z,101144.09
2019-04-04T17:04:22.770Z,101148.61
2019-04-04T17:06:49.883Z,101146.02
2019-04-04T17:09:16.977Z,101147.50
2019-04-04T17:11:44.111Z,101152.09
2019-04-04T17:14:11.199Z,101144.30
2019-04-04T17:16:38.274Z,101150.55
2019-04-04T17:19:05.384Z,101151.39
2019-04-04T17:21:34.255Z,101158.87
2019-04-04T17:24:01.449Z,101158.92
2019-04-04T17:26:29.686Z,101161.39
2019-04-04T17:28:56.896Z,101169.03
2019-04-04T17:31:24.072Z,101165.19
2019-04-04T17:33:52.650Z,101165.66
2019-04-04T17:36:21.431Z,101168.72
2019-04-04T17:38:49.151Z,101166.53
2019-04-04T17:41:16.253Z,101176.19
2019-04-04T17:43:43.937Z,101178.83
2019-04-04T17:46:11.674Z,101182.34
2019-04-04T17:48:39.094Z,101184.12
2019-04-04T17:51:06.518Z,101190.34
2019-04-04T17:53:34.171Z,101185.93
2019-04-04T17:56:01.824Z,101182.02
2019-04-04T17:58:29.011Z,101184.27
2019-04-04T18:00:56.168Z,101188.77
2019-04-04T18:03:23.324Z,101195.47
2019-04-04T18:05:50.457Z,101189.42
2019-04-04T18:08:17.543Z,101190.91
2019-04-04T18:10:44.633Z,101195.53
2019-04-04T18:13:11.761Z,101194.80
2019-04-04T18:15:40.689Z,101195.32
2019-04-04T18:18:07.814Z,101192.79
2019-04-04T18:20:34.922Z,101195.96
2019-04-04T18:23:02.030Z,101199.95
2019-04-04T18:25:29.125Z,101195.11
2019-04-04T18:27:56.423Z,101202.70
2019-04-04T18:30:23.656Z,101199.20
2019-04-04T18:32:50.730Z,101199.80
2019-04-04T18:35:17.956Z,101203.41
2019-04-04T18:37:45.178Z,101207.03
2019-04-04T18:40:13.832Z,101204.50
2019-04-04T18:42:52.699Z,101208.09
2019-04-04T18:45:10.429Z,101208.26
2019-04-04T18:47:37.755Z,101202.69
2019-04-04T18:50:06.425Z,101205.45
2019-04-04T18:52:33.895Z,101207.81
2019-04-04T18:55:00.937Z,101205.23
2019-04-04T18:57:28.109Z,101210.62
2019-04-04T18:59:56.340Z,101212.86
2019-04-04T19:02:23.416Z,101216.92
2019-04-04T19:04:50.932Z,101216.13
2019-04-04T19:07:18.145Z,101221.95
2019-04-04T19:09:46.568Z,101225.57
2019-04-04T19:12:13.646Z,101230.54
2019-04-04T19:14:40.737Z,101222.72
2019-04-04T19:17:07.860Z,101227.64
2019-04-04T19:19:34.970Z,101230.79
2019-04-04T19:22:02.075Z,101227.75
2019-04-04T19:24:30.378Z,101225.19
2019-04-04T19:26:57.527Z,101229.20
2019-04-04T19:29:24.785Z,101229.66
2019-04-04T19:31:51.988Z,101231.48
2019-04-04T19:34:19.141Z,101235.48
2019-04-04T19:36:46.745Z,101230.30
2019-04-04T19:39:16.985Z,101225.48
2019-04-04T19:41:44.173Z,101230.34
2019-04-04T19:44:11.350Z,101222.97
2019-04-04T19:46:39.990Z,101224.75
2019-04-04T19:49:07.183Z,101226.56
2019-04-04T19:51:35.182Z,101229.66
2019-04-04T19:54:02.602Z,101227.10
2019-04-04T19:56:31.524Z,101226.28
2019-04-04T19:58:59.854Z,101227.23
2019-04-04T20:01:27.611Z,101224.18
2019-04-04T20:03:54.975Z,101221.59
2019-04-04T20:06:22.090Z,101219.03
2019-04-04T20:08:52.212Z,101214.66
2019-04-04T20:11:19.038Z,101212.97
2019-04-04T20:13:46.134Z,101220.06
2019-04-04T20:16:13.875Z,101227.11
2019-04-04T20:18:43.966Z,101228.05
2019-04-04T20:21:11.156Z,101232.05
2019-04-04T20:23:41.014Z,101239.97
2019-04-04T20:26:11.786Z,101244.41
2019-04-04T20:28:40.220Z,101247.50
2019-04-04T20:31:08.616Z,101248.86
2019-04-04T20:33:35.948Z,101254.17
2019-04-04T20:36:04.514Z,101264.30
2019-04-04T20:38:32.106Z,101263.88
2019-04-04T20:41:01.289Z,101267.45
2019-04-04T20:43:42.682Z,101269.68
2019-04-04T20:46:02.125Z,101274.53
2019-04-04T20:48:29.259Z,101277.63
2019-04-04T20:50:57.879Z,101267.56
2019-04-04T20:53:25.065Z,101268.50
2019-04-04T20:55:52.180Z,101271.14
2019-04-04T20:58:19.395Z,101272.06
2019-04-04T21:00:46.477Z,101274.32
2019-04-04T21:03:13.583Z,101271.27
2019-04-04T21:05:43.601Z,101274.86
2019-04-04T21:08:10.680Z,101274.92
2019-04-04T21:10:37.762Z,101264.89
2019-04-04T21:13:04.863Z,101273.28
2019-04-04T21:15:31.962Z,101267.63
2019-04-04T21:17:59.076Z,101274.21
2019-04-04T21:20:26.353Z,101268.94
2019-04-04T21:22:55.310Z,101269.42
2019-04-04T21:25:23.535Z,101269.42
2019-04-04T21:27:50.618Z,101265.05
2019-04-04T21:30:19.002Z,101267.70
2019-04-04T21:32:47.935Z,101267.70
2019-04-04T21:35:15.040Z,101268.63
2019-04-04T21:37:45.251Z,101271.74
2019-04-04T21:40:12.322Z,101275.27
2019-04-04T21:42:39.527Z,101269.58
2019-04-04T21:45:07.456Z,101282.75
2019-04-04T21:47:34.611Z,101278.80
2019-04-04T21:50:01.713Z,101279.22
2019-04-04T21:52:28.794Z,101284.06
2019-04-04T21:54:55.866Z,101280.13
2019-04-04T21:57:22.936Z,101290.25
2019-04-04T21:59:50.004Z,101288.94
2019-04-04T22:02:17.196Z,101292.46
2019-04-04T22:04:44.314Z,101302.60
2019-04-04T22:07:11.482Z,101306.15
2019-04-04T22:09:38.573Z,101307.95
2019-04-04T22:12:07.705Z,101310.19
2019-04-04T22:14:34.774Z,101319.39
2019-04-04T22:17:01.867Z,101317.66
2019-04-04T22:19:28.936Z,101319.87
2019-04-04T22:21:56.008Z,101322.05
2019-04-04T22:24:24.211Z,101321.20
2019-04-04T22:26:51.285Z,101323.41
2019-04-04T22:29:18.358Z,101326.95
2019-04-04T22:31:45.441Z,101319.94
2019-04-04T22:34:12.508Z,101322.17
2019-04-04T22:36:39.582Z,101328.77
2019-04-04T22:39:06.838Z,101329.25
2019-04-04T22:41:33.936Z,101327.06
2019-04-04T22:44:03.603Z,101327.08
2019-04-04T22:46:31.156Z,101330.59
2019-04-04T22:48:58.230Z,101328.44
2019-04-04T22:51:25.325Z,101328.00
2019-04-04T22:53:52.410Z,101331.52
2019-04-04T22:56:21.296Z,101324.51
2019-04-04T22:58:48.386Z,101334.61
2019-04-04T23:01:16.562Z,101331.55
2019-04-04T23:03:43.708Z,101333.77
2019-04-04T23:06:10.801Z,101326.28
2019-04-04T23:08:37.888Z,101326.28
2019-04-04T23:11:04.965Z,101331.55
2019-04-04T23:13:32.082Z,101330.20
2019-04-04T23:15:59.193Z,101327.12
2019-04-04T23:18:26.263Z,101331.97
2019-04-04T23:20:53.417Z,101327.14
2019-04-04T23:23:20.432Z,101338.98
2019-04-04T23:25:47.526Z,101333.29
2019-04-04T23:28:14.601Z,101337.19
2019-04-04T23:30:41.674Z,101340.27
2019-04-04T23:33:08.739Z,101344.63
2019-04-04T23:35:35.943Z,101350.73
2019-04-04T23:38:03.011Z,101349.85
2019-04-04T23:40:30.095Z,101351.16
2019-04-04T23:42:57.169Z,101354.20
2019-04-04T23:45:24.271Z,101352.45
2019-04-04T23:47:51.344Z,101358.59
2019-04-04T23:50:18.428Z,101352.86
2019-04-04T23:52:48.656Z,101353.73
2019-04-04T23:55:15.711Z,101351.08
2019-04-04T23:57:42.804Z,101355.03
